This is the latest recevied weather packets stored in our database for station/object IZ2WMD-13. If no packets are shown the sender has not sent any weather packets the latest 10 day(s).
| Time | Temp. | Humidity | Pressure | Rain* | Wind** | Luminosity | Snow |
|---|---|---|---|---|---|---|---|
| 1777836658 | 18.33° C | 50% | 1015.1 hPa | - | - | - | - |
| 1777835453 | 18.89° C | 46% | 1014.9 hPa | - | - | - | - |
| 1777834248 | 19.44° C | 43% | 1014.7 hPa | - | - | - | - |
| 1777833043 | 20° C | 37% | 1014.6 hPa | - | - | - | - |
| 1777831838 | 20.56° C | 35% | 1014.4 hPa | - | - | - | - |
| 1777829428 | 21.67° C | 33% | 1014.2 hPa | - | - | - | - |
| 1777828223 | 22.22° C | 31% | 1014.3 hPa | - | - | - | - |
| 1777827019 | 22.22° C | 30% | 1014.3 hPa | - | - | - | - |
| 1777825814 | 22.78° C | 26% | 1014.3 hPa | - | - | - | - |
| 1777824661 | 23.33° C | 28% | 1014.5 hPa | - | - | - | - |
| 1777824609 | 23.33° C | 28% | 1014.5 hPa | - | - | - | - |
| 1777823404 | 23.33° C | 28% | 1014.6 hPa | - | - | - | - |
| 1777822199 | 23.89° C | 26% | 1014.8 hPa | - | - | - | - |
| 1777820995 | 24.44° C | 26% | 1014.9 hPa | - | - | - | - |
| 1777819790 | 24.44° C | 28% | 1015.2 hPa | - | - | - | - |
| 1777816176 | 25° C | 24% | 1015.8 hPa | - | - | - | - |
| 1777814971 | 26.11° C | 22% | 1015.9 hPa | - | - | - | - |
| 1777813766 | 27.78° C | 22% | 1015.9 hPa | - | - | - | - |
| 1777812561 | 28.33° C | 22% | 1016 hPa | - | - | - | - |
| 1777811356 | 27.78° C | 24% | 1016.2 hPa | - | - | - | - |
| 1777808947 | 26.67° C | 27% | 1016.2 hPa | - | - | - | - |
| 1777807743 | 26.11° C | 26% | 1016.3 hPa | - | - | - | - |
| 1777806536 | 25° C | 29% | 1016.5 hPa | - | - | - | - |
| 1777805332 | 25.56° C | 29% | 1016.5 hPa | - | - | - | - |
| 1777802922 | 26.11° C | 27% | 1016.6 hPa | - | - | - | - |
* Rain since midnight (hover to see other rain measurements)
** Current wind speed in m/s (hover to see current wind gust speed)